createdAt,value
2018-12-03T08:00:45.916Z,10.87
2018-12-03T08:02:48.882Z,10.83
2018-12-03T08:04:51.220Z,4.30
2018-12-03T08:06:53.524Z,1.90
2018-12-03T08:08:55.938Z,1.87
2018-12-03T08:10:58.472Z,2.37
2018-12-03T08:13:00.778Z,2.00
2018-12-03T08:15:03.178Z,2.60
2018-12-03T08:17:05.676Z,1.87
2018-12-03T08:19:07.988Z,2.03
2018-12-03T08:21:11.209Z,1.33
2018-12-03T08:23:13.600Z,1.87
2018-12-03T08:25:16.022Z,0.73
2018-12-03T08:27:18.365Z,1.13
2018-12-03T08:29:20.652Z,1.23
2018-12-03T08:31:23.277Z,2.10
2018-12-03T08:33:25.638Z,1.07
2018-12-03T08:35:28.350Z,2.60
2018-12-03T08:37:30.746Z,0.80
2018-12-03T08:39:33.138Z,2.00
2018-12-03T08:41:41.863Z,1.47
2018-12-03T08:43:45.597Z,1.07
2018-12-03T08:45:49.293Z,3.87
2018-12-03T08:47:51.741Z,0.90
2018-12-03T08:49:54.225Z,0.83
2018-12-03T08:51:57.449Z,3.60
2018-12-03T08:54:00.920Z,1.63
2018-12-03T08:56:04.587Z,1.10
2018-12-03T08:58:09.056Z,2.60
2018-12-03T09:00:11.452Z,1.30
2018-12-03T09:02:13.986Z,1.10
2018-12-03T09:04:17.052Z,1.93
2018-12-03T09:06:19.405Z,0.70
2018-12-03T09:08:21.751Z,1.87
2018-12-03T09:10:24.826Z,1.93
2018-12-03T09:12:28.249Z,2.23
2018-12-03T09:14:31.960Z,3.00
2018-12-03T09:16:34.452Z,2.30
2018-12-03T09:18:36.811Z,0.80
2018-12-03T09:20:39.426Z,1.10
2018-12-03T09:25:11.879Z,2.77
2018-12-03T09:27:15.312Z,2.17
2018-12-03T09:29:17.739Z,3.00
2018-12-03T09:31:21.076Z,3.43
2018-12-03T09:33:24.912Z,3.50
2018-12-03T09:35:29.502Z,4.30
2018-12-03T09:37:33.832Z,3.07
2018-12-03T09:39:36.383Z,2.23
2018-12-03T09:41:39.035Z,1.83
2018-12-03T09:43:42.080Z,2.43
2018-12-03T09:45:44.407Z,2.50
2018-12-03T09:47:49.984Z,0.63
2018-12-03T09:49:56.941Z,0.80
2018-12-03T09:52:00.346Z,1.13
2018-12-03T09:54:03.864Z,2.10
2018-12-03T09:56:09.647Z,0.77
2018-12-03T09:58:21.502Z,3.23
2018-12-03T10:00:24.590Z,1.10
2018-12-03T10:02:27.474Z,1.93
2018-12-03T10:04:30.379Z,0.93
2018-12-03T10:06:35.943Z,0.60
2018-12-03T10:08:39.850Z,0.57
2018-12-03T10:10:43.786Z,0.73
2018-12-03T10:12:46.519Z,1.07
2018-12-03T10:15:06.893Z,0.80
2018-12-03T10:19:49.912Z,0.93
2018-12-03T10:21:52.311Z,1.07
2018-12-03T10:23:55.919Z,1.30
2018-12-03T10:25:58.653Z,2.90
2018-12-03T10:28:05.672Z,2.43
2018-12-03T10:32:26.961Z,1.00
2018-12-03T10:34:29.352Z,2.67
2018-12-03T10:36:32.302Z,1.77
2018-12-03T10:38:34.620Z,1.40
2018-12-03T10:40:38.204Z,1.23
2018-12-03T10:42:40.906Z,0.63
2018-12-03T10:44:43.408Z,0.30
2018-12-03T10:46:47.688Z,2.00
2018-12-03T10:48:51.059Z,1.47
2018-12-03T10:50:53.409Z,0.70
2018-12-03T10:52:57.945Z,1.97
2018-12-03T10:55:01.493Z,1.67
2018-12-03T10:57:04.396Z,2.30
2018-12-03T10:59:07.254Z,0.87
2018-12-03T11:01:15.532Z,2.77
2018-12-03T11:03:19.619Z,0.93
2018-12-03T11:05:27.820Z,3.03
2018-12-03T11:07:32.091Z,1.53
2018-12-03T11:09:34.496Z,2.40
2018-12-03T11:11:37.819Z,1.77
2018-12-03T11:13:40.452Z,5.20
2018-12-03T11:15:45.431Z,2.27
2018-12-03T11:20:03.421Z,1.10
2018-12-03T11:22:08.268Z,3.03
2018-12-03T11:24:13.634Z,2.27
2018-12-03T11:26:16.686Z,1.77
2018-12-03T11:28:20.872Z,1.93
2018-12-03T11:30:23.169Z,2.70
2018-12-03T11:32:25.469Z,3.83
2018-12-03T11:36:37.097Z,2.40
2018-12-03T11:38:39.527Z,1.43
2018-12-03T11:40:47.611Z,1.83
2018-12-03T11:42:54.026Z,1.50
2018-12-03T11:45:02.442Z,1.77
2018-12-03T11:47:08.869Z,1.67
2018-12-03T11:49:11.260Z,0.70
2018-12-03T11:55:47.378Z,0.97
2018-12-03T11:57:49.790Z,1.93
2018-12-03T12:02:12.875Z,1.83
2018-12-03T12:04:19.547Z,1.03
2018-12-03T12:11:13.443Z,2.40
2018-12-03T12:13:21.115Z,1.03
2018-12-03T12:15:26.786Z,1.50
2018-12-03T12:20:02.714Z,3.27
2018-12-03T12:22:05.830Z,1.47
2018-12-03T12:24:08.449Z,2.70
2018-12-03T12:51:24.201Z,0.57
2018-12-03T12:53:53.767Z,0.77
2018-12-03T12:56:02.319Z,1.30
2018-12-03T12:58:22.572Z,1.50
2018-12-03T13:05:09.010Z,1.40
2018-12-03T13:12:02.878Z,0.40
2018-12-03T13:14:20.058Z,0.73
2018-12-03T13:19:16.729Z,0.43
2018-12-03T13:26:03.905Z,0.70
2018-12-03T13:28:06.725Z,0.50
2018-12-03T13:30:10.858Z,0.40
2018-12-03T13:32:15.974Z,1.33
2018-12-03T13:34:24.863Z,1.00
2018-12-03T13:41:13.153Z,1.67
2018-12-03T13:43:16.587Z,1.43
2018-12-03T13:45:19.446Z,1.80
2018-12-03T13:47:27.125Z,2.57
2018-12-03T13:49:30.243Z,1.00
2018-12-03T13:51:35.965Z,2.50
2018-12-03T13:56:29.581Z,0.50
2018-12-03T13:58:33.315Z,0.80
2018-12-03T14:00:40.157Z,1.80
2018-12-03T14:02:43.454Z,0.50
2018-12-03T14:04:50.500Z,0.50
2018-12-03T14:06:55.082Z,2.10
2018-12-03T14:08:57.769Z,4.30
2018-12-03T14:11:00.752Z,2.93
2018-12-03T14:13:03.141Z,7.47
2018-12-03T14:15:07.717Z,9.97
2018-12-03T14:17:10.616Z,16.33
2018-12-03T14:19:18.569Z,17.87
2018-12-03T14:21:23.760Z,2.57
2018-12-03T14:23:26.178Z,2.27
2018-12-03T14:27:45.240Z,1.70
2018-12-03T14:29:48.353Z,1.40
2018-12-03T14:31:52.976Z,1.47
2018-12-03T14:33:55.585Z,0.77
2018-12-03T14:35:58.051Z,0.60
2018-12-03T14:38:05.979Z,1.43
2018-12-03T14:40:08.304Z,4.13
2018-12-03T14:42:10.669Z,0.77
2018-12-03T14:44:13.325Z,0.70
2018-12-03T14:46:17.145Z,0.70
2018-12-03T14:48:19.644Z,1.30
2018-12-03T14:50:23.036Z,0.80
2018-12-03T14:52:28.726Z,2.10
2018-12-03T14:54:32.407Z,3.87
2018-12-03T14:56:37.777Z,2.20
2018-12-03T14:58:41.907Z,1.50
2018-12-03T15:00:44.632Z,2.77
2018-12-03T15:05:16.118Z,2.53
2018-12-03T15:07:30.169Z,3.10
2018-12-03T15:09:35.077Z,2.60
2018-12-03T15:11:45.852Z,2.13
2018-12-03T15:13:49.189Z,1.90
2018-12-03T15:15:56.174Z,1.60
2018-12-03T15:18:07.921Z,4.13
2018-12-03T15:22:42.201Z,1.30
2018-12-03T15:24:44.959Z,1.93
2018-12-03T15:26:48.520Z,1.30
2018-12-03T15:28:53.438Z,1.23
2018-12-03T15:30:55.871Z,2.73
2018-12-03T15:32:59.333Z,3.93
2018-12-03T15:35:01.734Z,2.70
2018-12-03T15:37:05.151Z,3.07
2018-12-03T15:39:08.216Z,3.10
2018-12-03T15:41:14.316Z,2.23
2018-12-03T15:43:22.497Z,1.20
2018-12-03T15:45:29.427Z,3.60
2018-12-03T15:47:32.412Z,3.93
2018-12-03T15:49:34.913Z,1.77
2018-12-03T15:51:37.999Z,1.63
2018-12-03T15:53:40.326Z,3.67
2018-12-03T15:55:42.728Z,4.30
2018-12-03T15:57:45.037Z,1.30
2018-12-03T15:59:47.348Z,2.20
2018-12-03T16:01:49.713Z,3.53
2018-12-03T16:03:52.041Z,3.53
2018-12-03T16:05:54.383Z,2.60
2018-12-03T16:07:56.711Z,2.33
2018-12-03T16:09:59.634Z,7.50
2018-12-03T16:12:01.951Z,3.30
2018-12-03T16:14:04.805Z,5.03
2018-12-03T16:16:07.143Z,3.00
2018-12-03T16:18:09.435Z,3.07
2018-12-03T16:20:11.737Z,3.03
2018-12-03T16:22:14.021Z,5.60
2018-12-03T16:24:16.380Z,3.40
2018-12-03T16:26:18.720Z,3.83
2018-12-03T16:28:21.087Z,2.40
2018-12-03T16:30:23.431Z,2.63
2018-12-03T16:32:25.708Z,1.17
2018-12-03T16:34:28.039Z,2.43
2018-12-03T16:36:30.354Z,4.23
2018-12-03T16:38:33.513Z,3.30
2018-12-03T16:40:35.815Z,2.57
2018-12-03T16:42:38.153Z,4.10
2018-12-03T16:44:40.464Z,2.03
2018-12-03T16:46:42.746Z,4.43
2018-12-03T16:48:45.053Z,3.80
2018-12-03T16:50:47.389Z,2.60
2018-12-03T16:52:49.659Z,1.73
2018-12-03T16:54:52.900Z,4.53
2018-12-03T16:56:55.197Z,2.90
2018-12-03T16:58:57.516Z,3.63
2018-12-03T17:00:59.855Z,4.50
2018-12-03T17:03:02.179Z,3.33
2018-12-03T17:05:04.999Z,2.47
2018-12-03T17:07:07.268Z,3.60
2018-12-03T17:09:09.555Z,3.17
2018-12-03T17:11:11.874Z,2.83
2018-12-03T17:13:14.173Z,2.63
2018-12-03T17:15:16.501Z,2.23
2018-12-03T17:17:18.807Z,1.70
2018-12-03T17:19:21.090Z,1.23
2018-12-03T17:21:23.428Z,2.70
2018-12-03T17:23:25.704Z,1.83
2018-12-03T17:25:28.042Z,1.20
2018-12-03T17:27:30.343Z,0.50
2018-12-03T17:29:32.635Z,1.10
2018-12-03T17:31:35.074Z,0.60
2018-12-03T17:33:37.641Z,2.83
2018-12-03T17:35:39.960Z,1.20
2018-12-03T17:37:42.238Z,0.80
2018-12-03T17:39:44.517Z,1.63
2018-12-03T17:41:46.828Z,1.00
2018-12-03T17:43:49.139Z,1.50
2018-12-03T17:45:51.458Z,1.47
2018-12-03T17:47:53.776Z,3.60
2018-12-03T17:49:56.042Z,2.63
2018-12-03T17:51:58.482Z,2.50
2018-12-03T17:54:00.836Z,4.03
2018-12-03T17:56:03.162Z,3.20
2018-12-03T17:58:05.816Z,4.10
2018-12-03T18:00:09.083Z,3.90
2018-12-03T18:02:11.414Z,3.57
2018-12-03T18:04:14.156Z,1.90
2018-12-03T18:06:17.144Z,4.13
2018-12-03T18:08:19.765Z,2.17
2018-12-03T18:10:22.120Z,2.80
2018-12-03T18:12:24.437Z,3.03
2018-12-03T18:14:26.770Z,2.17
2018-12-03T18:16:29.126Z,2.57
2018-12-03T18:18:31.426Z,4.30
2018-12-03T18:20:33.795Z,4.17
2018-12-03T18:22:36.095Z,4.20
2018-12-03T18:24:38.419Z,5.03
2018-12-03T18:26:41.655Z,3.70
2018-12-03T18:28:43.989Z,4.90
2018-12-03T18:30:46.361Z,6.23
2018-12-03T18:32:48.664Z,2.57
2018-12-03T18:34:50.997Z,5.47
2018-12-03T18:36:53.313Z,4.63
2018-12-03T18:38:55.635Z,1.10
2018-12-03T18:41:03.171Z,0.70
2018-12-03T18:43:02.319Z,2.60
2018-12-03T18:45:05.383Z,1.60
2018-12-03T18:47:07.709Z,1.30
2018-12-03T18:49:10.106Z,1.80
2018-12-03T18:51:12.444Z,1.23
2018-12-03T18:53:14.889Z,1.30
2018-12-03T18:55:17.181Z,0.87
2018-12-03T18:57:19.518Z,2.50
2018-12-03T18:59:21.816Z,0.80
2018-12-03T19:01:24.257Z,2.07
2018-12-03T19:03:26.551Z,3.23
2018-12-03T19:05:28.829Z,1.67
2018-12-03T19:07:31.172Z,1.07
2018-12-03T19:09:33.977Z,3.00
2018-12-03T19:11:36.303Z,1.30
2018-12-03T19:13:38.609Z,2.07
2018-12-03T19:15:40.908Z,4.03
2018-12-03T19:17:43.241Z,2.50
2018-12-03T19:19:45.537Z,4.47
2018-12-03T19:21:47.879Z,3.07
2018-12-03T19:23:50.188Z,1.50
2018-12-03T19:25:52.511Z,2.30
2018-12-03T19:27:54.854Z,1.93
2018-12-03T19:29:57.148Z,4.43
2018-12-03T19:31:59.554Z,2.90
2018-12-03T19:34:01.870Z,2.57
2018-12-03T19:36:04.778Z,5.83
2018-12-03T19:38:07.106Z,2.63
2018-12-03T19:40:09.409Z,2.10
2018-12-03T19:42:11.752Z,2.07
2018-12-03T19:44:14.054Z,2.23
2018-12-03T19:46:16.379Z,2.33
2018-12-03T19:48:18.715Z,1.50
2018-12-03T19:50:21.021Z,3.87
2018-12-03T19:52:24.247Z,5.63
2018-12-03T19:54:27.297Z,5.30
2018-12-03T19:56:29.591Z,3.53
2018-12-03T19:58:31.936Z,4.00
2018-12-03T20:00:34.230Z,3.53
2018-12-03T20:02:36.582Z,1.80
2018-12-03T20:04:44.375Z,4.97
2018-12-03T20:06:46.701Z,7.63
2018-12-03T20:08:49.832Z,3.47
2018-12-03T20:10:52.154Z,3.57
2018-12-03T20:12:54.591Z,4.27
2018-12-03T20:14:56.991Z,6.47
2018-12-03T20:16:59.524Z,6.07
2018-12-03T20:19:01.853Z,6.10
2018-12-03T20:21:04.202Z,6.73
2018-12-03T20:23:06.673Z,5.53
2018-12-03T20:25:10.032Z,5.87
2018-12-03T20:27:12.707Z,6.63
2018-12-03T20:29:15.114Z,4.73
2018-12-03T20:31:17.482Z,11.33
2018-12-03T20:33:20.333Z,5.97
2018-12-03T20:35:23.279Z,8.23
2018-12-03T20:37:27.709Z,7.70
2018-12-03T20:39:31.684Z,4.07
2018-12-03T20:41:33.990Z,7.27
2018-12-03T20:43:36.324Z,7.57
2018-12-03T20:45:40.282Z,9.93
2018-12-03T20:47:42.652Z,7.27
2018-12-03T20:49:44.985Z,3.93
2018-12-03T20:51:47.261Z,4.30
2018-12-03T20:53:49.580Z,6.47
2018-12-03T20:55:51.878Z,6.60
2018-12-03T20:57:54.176Z,5.47
2018-12-03T20:59:57.689Z,5.80
2018-12-03T21:02:00.127Z,4.20
2018-12-03T21:04:03.261Z,5.77
2018-12-03T21:06:05.567Z,4.43
2018-12-03T21:08:07.894Z,4.37
2018-12-03T21:10:10.216Z,4.53
2018-12-03T21:12:12.559Z,3.60
2018-12-03T21:14:19.992Z,5.47
2018-12-03T21:16:19.186Z,5.60
2018-12-03T21:18:21.548Z,4.20
2018-12-03T21:20:23.844Z,5.17
2018-12-03T21:22:26.178Z,5.10
2018-12-03T21:24:28.512Z,9.97
2018-12-03T21:26:30.827Z,6.47
2018-12-03T21:28:33.192Z,8.13
2018-12-03T21:30:35.553Z,8.23
2018-12-03T21:32:37.859Z,7.07
2018-12-03T21:34:40.186Z,8.83
2018-12-03T21:36:42.502Z,6.80
2018-12-03T21:38:45.331Z,8.03
2018-12-03T21:40:47.637Z,8.83
2018-12-03T21:42:50.386Z,7.30
2018-12-03T21:44:52.680Z,8.63
2018-12-03T21:46:55.018Z,10.30
2018-12-03T21:48:57.401Z,11.03
2018-12-03T21:50:59.683Z,7.33
2018-12-03T21:53:02.017Z,8.43
2018-12-03T21:55:04.727Z,13.80
2018-12-03T21:57:10.780Z,8.03
2018-12-03T21:59:11.789Z,6.37
2018-12-03T22:01:14.107Z,7.43
2018-12-03T22:03:16.421Z,10.10
2018-12-03T22:05:18.746Z,8.63
2018-12-03T22:07:21.110Z,6.30
2018-12-03T22:09:23.454Z,11.23
2018-12-03T22:11:26.165Z,8.53
2018-12-03T22:13:28.482Z,6.97
2018-12-03T22:15:30.797Z,9.77
2018-12-03T22:17:33.099Z,12.30
2018-12-03T22:19:35.455Z,12.00
2018-12-03T22:21:37.750Z,7.77
2018-12-03T22:23:40.740Z,8.77
2018-12-03T22:25:43.043Z,8.60
2018-12-03T22:27:45.898Z,7.03
2018-12-03T22:29:48.274Z,11.33
2018-12-03T22:31:50.603Z,10.53
2018-12-03T22:33:52.885Z,11.90
2018-12-03T22:35:55.229Z,10.00
2018-12-03T22:37:57.540Z,6.40
2018-12-03T22:39:59.881Z,10.80
2018-12-03T22:42:02.192Z,7.23
2018-12-03T22:44:04.506Z,11.37
2018-12-03T22:46:06.822Z,8.10
2018-12-03T22:48:09.138Z,9.70
2018-12-03T22:50:11.478Z,8.17
2018-12-03T22:52:13.764Z,6.77
2018-12-03T22:54:16.075Z,9.93
2018-12-03T22:56:18.400Z,11.73
2018-12-03T22:58:20.719Z,10.37
2018-12-03T23:00:28.771Z,11.33
2018-12-03T23:02:31.067Z,9.23
2018-12-03T23:04:35.126Z,10.73
2018-12-03T23:06:37.491Z,9.07
2018-12-03T23:08:39.829Z,10.07
2018-12-03T23:10:42.409Z,11.30
2018-12-03T23:12:44.711Z,6.43
2018-12-03T23:14:46.980Z,9.23
2018-12-03T23:16:49.315Z,8.60
2018-12-03T23:18:51.672Z,8.87
2018-12-03T23:20:54.050Z,6.80
2018-12-03T23:22:56.330Z,8.70
2018-12-03T23:24:58.618Z,13.97
2018-12-03T23:27:00.962Z,8.67
2018-12-03T23:29:03.314Z,7.33
2018-12-03T23:31:05.685Z,9.03
2018-12-03T23:33:07.988Z,9.87
2018-12-03T23:35:10.302Z,5.83
2018-12-03T23:37:12.628Z,5.07
2018-12-03T23:39:14.944Z,6.97
2018-12-03T23:41:17.358Z,7.30
2018-12-03T23:43:19.669Z,5.87
2018-12-03T23:45:23.743Z,7.40
2018-12-03T23:47:26.145Z,8.10
2018-12-03T23:49:28.463Z,8.83
2018-12-03T23:51:36.120Z,7.37
2018-12-03T23:53:35.925Z,7.97
2018-12-03T23:55:38.284Z,6.27
2018-12-03T23:57:40.631Z,9.70
2018-12-03T23:59:42.950Z,9.27
